DFEEL EDBH-EDXW
Flight info
| Callsign | DFEEL |
|---|---|
| Flight time | N/A |
| Altitude | 24000 |
| Route | EDBH/09 GASBO3P GASBO DCT MAKEL DCT MEGAR DCT BUMAB DCT IZZEX DCT OLDIP |
| Aircraft | PC12/L-SDFGRWY/S |
Departure
| Time | N/A |
|---|---|
| Airport | Stralsund-Barth Airport (EDBH) |
Arrival
| Time | 2026-05-08 18:49 |
|---|---|
| Airport | Westerland Sylt Airport (EDXW) |
| Time | Latitude | Longitude | Altitude | Speed | Heading |
|---|---|---|---|---|---|
| 2026-05-08 18:29 | 54.50503 | 10.35810 | 24235 ft | 263 kts | 278° |
| 2026-05-08 18:29 | 54.50737 | 10.32678 | 24230 ft | 263 kts | 278° |
| 2026-05-08 18:29 | 54.50971 | 10.29553 | 24241 ft | 263 kts | 278° |
| 2026-05-08 18:30 | 54.51203 | 10.26428 | 24237 ft | 263 kts | 278° |
| 2026-05-08 18:30 | 54.51436 | 10.23273 | 24042 ft | 269 kts | 278° |
| 2026-05-08 18:30 | 54.51670 | 10.20108 | 23697 ft | 268 kts | 278° |
| 2026-05-08 18:30 | 54.51902 | 10.16959 | 23334 ft | 262 kts | 277° |
| 2026-05-08 18:31 | 54.52129 | 10.13854 | 22980 ft | 261 kts | 277° |
| 2026-05-08 18:31 | 54.52357 | 10.10731 | 22636 ft | 265 kts | 277° |
| 2026-05-08 18:31 | 54.52588 | 10.07558 | 22285 ft | 268 kts | 277° |
| 2026-05-08 18:31 | 54.52818 | 10.04383 | 21930 ft | 267 kts | 277° |
| 2026-05-08 18:32 | 54.53048 | 10.01193 | 21580 ft | 271 kts | 277° |
| 2026-05-08 18:32 | 54.53281 | 9.97952 | 21218 ft | 274 kts | 277° |
| 2026-05-08 18:32 | 54.53513 | 9.94715 | 20857 ft | 271 kts | 277° |
| 2026-05-08 18:32 | 54.53742 | 9.91512 | 20496 ft | 267 kts | 277° |
| 2026-05-08 18:33 | 54.53966 | 9.88352 | 20143 ft | 266 kts | 277° |
| 2026-05-08 18:33 | 54.54191 | 9.85173 | 19778 ft | 266 kts | 277° |
| 2026-05-08 18:33 | 54.54412 | 9.82042 | 19428 ft | 261 kts | 277° |
| 2026-05-08 18:33 | 54.54628 | 9.78966 | 19089 ft | 263 kts | 277° |
| 2026-05-08 18:34 | 54.54848 | 9.75830 | 18736 ft | 258 kts | 277° |
| 2026-05-08 18:34 | 54.55063 | 9.72746 | 18384 ft | 262 kts | 277° |
| 2026-05-08 18:34 | 54.55277 | 9.69673 | 18026 ft | 260 kts | 277° |
| 2026-05-08 18:34 | 54.55492 | 9.66559 | 17677 ft | 257 kts | 277° |
| 2026-05-08 18:35 | 54.55700 | 9.63544 | 17343 ft | 258 kts | 277° |
| 2026-05-08 18:35 | 54.55912 | 9.60466 | 17004 ft | 259 kts | 277° |
| 2026-05-08 18:35 | 54.56123 | 9.57387 | 16664 ft | 259 kts | 277° |
| 2026-05-08 18:35 | 54.56330 | 9.54344 | 16323 ft | 254 kts | 277° |
| 2026-05-08 18:36 | 54.56534 | 9.51339 | 15989 ft | 252 kts | 277° |
| 2026-05-08 18:36 | 54.56738 | 9.48322 | 15658 ft | 256 kts | 277° |
| 2026-05-08 18:36 | 54.56947 | 9.45220 | 15319 ft | 263 kts | 277° |
| 2026-05-08 18:36 | 54.57158 | 9.42078 | 14970 ft | 264 kts | 277° |
| 2026-05-08 18:37 | 54.57369 | 9.38935 | 14622 ft | 264 kts | 276° |
| 2026-05-08 18:37 | 54.57576 | 9.35829 | 14283 ft | 264 kts | 276° |
| 2026-05-08 18:37 | 54.57785 | 9.32673 | 13924 ft | 265 kts | 276° |
| 2026-05-08 18:37 | 54.57992 | 9.29537 | 13559 ft | 262 kts | 276° |
| 2026-05-08 18:38 | 54.58198 | 9.26420 | 13211 ft | 262 kts | 276° |
| 2026-05-08 18:38 | 54.58402 | 9.23297 | 12865 ft | 262 kts | 276° |
| 2026-05-08 18:38 | 54.58606 | 9.20183 | 12521 ft | 261 kts | 276° |
| 2026-05-08 18:38 | 54.58808 | 9.17070 | 12182 ft | 261 kts | 276° |
| 2026-05-08 18:39 | 54.59009 | 9.13973 | 11833 ft | 258 kts | 276° |
| 2026-05-08 18:39 | 54.59207 | 9.10903 | 11491 ft | 257 kts | 276° |
| 2026-05-08 18:39 | 54.59404 | 9.07838 | 11154 ft | 256 kts | 276° |
| 2026-05-08 18:39 | 54.59600 | 9.04781 | 10817 ft | 256 kts | 276° |
| 2026-05-08 18:40 | 54.59794 | 9.01730 | 10403 ft | 258 kts | 276° |
| 2026-05-08 18:40 | 54.59988 | 8.98683 | 9940 ft | 253 kts | 276° |
| 2026-05-08 18:40 | 54.60177 | 8.95693 | 9576 ft | 250 kts | 276° |
| 2026-05-08 18:40 | 54.60363 | 8.92735 | 9246 ft | 252 kts | 276° |
| 2026-05-08 18:41 | 54.60551 | 8.89725 | 8912 ft | 253 kts | 276° |
| 2026-05-08 18:41 | 54.60740 | 8.86710 | 8578 ft | 251 kts | 276° |
| 2026-05-08 18:41 | 54.60925 | 8.83733 | 8248 ft | 249 kts | 276° |
| 2026-05-08 18:41 | 54.61104 | 8.80855 | 7925 ft | 234 kts | 276° |
| 2026-05-08 18:42 | 54.61274 | 8.78086 | 7611 ft | 229 kts | 276° |
| 2026-05-08 18:42 | 54.61442 | 8.75362 | 7318 ft | 230 kts | 276° |
| 2026-05-08 18:42 | 54.61681 | 8.72630 | 6991 ft | 229 kts | 289° |
| 2026-05-08 18:42 | 54.62513 | 8.70267 | 6684 ft | 238 kts | 308° |
| 2026-05-08 18:43 | 54.63662 | 8.68078 | 6347 ft | 252 kts | 321° |
| 2026-05-08 18:43 | 54.65083 | 8.66299 | 6011 ft | 252 kts | 328° |
| 2026-05-08 18:43 | 54.66508 | 8.64607 | 5676 ft | 251 kts | 326° |
| 2026-05-08 18:43 | 54.67934 | 8.62857 | 5342 ft | 251 kts | 327° |
| 2026-05-08 18:44 | 54.69377 | 8.61079 | 5003 ft | 251 kts | 326° |
| 2026-05-08 18:44 | 54.70773 | 8.59355 | 4667 ft | 249 kts | 327° |
| 2026-05-08 18:44 | 54.72189 | 8.57607 | 4339 ft | 251 kts | 327° |
| 2026-05-08 18:44 | 54.73640 | 8.55834 | 4002 ft | 253 kts | 327° |
| 2026-05-08 18:45 | 54.75054 | 8.54100 | 3668 ft | 252 kts | 326° |
| 2026-05-08 18:45 | 54.76473 | 8.52349 | 3339 ft | 248 kts | 327° |
| 2026-05-08 18:45 | 54.77883 | 8.50627 | 3070 ft | 246 kts | 327° |
| 2026-05-08 18:45 | 54.79264 | 8.48924 | 3011 ft | 244 kts | 327° |
| 2026-05-08 18:46 | 54.80671 | 8.47188 | 2763 ft | 251 kts | 327° |
| 2026-05-08 18:46 | 54.82071 | 8.45460 | 2499 ft | 240 kts | 327° |
| 2026-05-08 18:46 | 54.83392 | 8.43836 | 2225 ft | 226 kts | 327° |
| 2026-05-08 18:46 | 54.84567 | 8.42206 | 1940 ft | 210 kts | 313° |
| 2026-05-08 18:47 | 54.85361 | 8.40210 | 1659 ft | 192 kts | 304° |
| 2026-05-08 18:47 | 54.86036 | 8.38325 | 1373 ft | 175 kts | 303° |
| 2026-05-08 18:47 | 54.86626 | 8.36669 | 1105 ft | 148 kts | 304° |
| 2026-05-08 18:47 | 54.87130 | 8.35234 | 891 ft | 138 kts | 304° |
| 2026-05-08 18:48 | 54.87644 | 8.33854 | 890 ft | 130 kts | 312° |
| 2026-05-08 18:48 | 54.88254 | 8.32804 | 750 ft | 118 kts | 329° |
| 2026-05-08 18:48 | 54.88919 | 8.32103 | 602 ft | 105 kts | 341° |
| 2026-05-08 18:48 | 54.89596 | 8.31724 | 504 ft | 101 kts | 357° |
| 2026-05-08 18:49 | 54.90279 | 8.31722 | 396 ft | 96 kts | 25° |
| 2026-05-08 18:49 | 54.90755 | 8.32372 | 210 ft | 88 kts | 68° |
| 2026-05-08 18:49 | 54.91067 | 8.33288 | 35 ft | 83 kts | 65° |
| 2026-05-08 18:49 | 54.91253 | 8.33847 | 31 ft | 30 kts | 62° |
| 2026-05-08 18:50 | 54.91391 | 8.33964 | 32 ft | 31 kts | 326° |
| 2026-05-08 18:50 | 54.91609 | 8.33695 | 32 ft | 38 kts | 320° |
| 2026-05-08 18:50 | 54.91720 | 8.33400 | 32 ft | 24 kts | 290° |
| 2026-05-08 18:50 | 54.91761 | 8.33202 | 32 ft | 7 kts | 247° |
| 2026-05-08 18:51 | 54.91667 | 8.33178 | 32 ft | 22 kts | 179° |
| 2026-05-08 18:51 | 54.91509 | 8.33177 | 26 ft | 18 kts | 180° |
| 2026-05-08 18:51 | 54.91426 | 8.33232 | 25 ft | 19 kts | 148° |
| 2026-05-08 18:51 | 54.91312 | 8.33222 | 26 ft | 5 kts | 207° |
| 2026-05-08 18:52 | 54.91239 | 8.33180 | 28 ft | 18 kts | 178° |
| 2026-05-08 18:52 | 54.91068 | 8.33179 | 30 ft | 28 kts | 195° |
| 2026-05-08 18:52 | 54.91039 | 8.32949 | 28 ft | 13 kts | 313° |
| 2026-05-08 18:52 | 54.91110 | 8.32808 | 25 ft | 10 kts | 308° |
| 2026-05-08 18:53 | 54.91161 | 8.32706 | 26 ft | 14 kts | 318° |
| 2026-05-08 18:53 | 54.91228 | 8.32561 | 24 ft | 9 kts | 261° |
| 2026-05-08 18:53 | 54.91223 | 8.32547 | 24 ft | 0 kts | 235° |
| 2026-05-08 18:53 | 54.91224 | 8.32547 | 24 ft | 0 kts | 235° |